Time,TemperatureF,DewpointF,PressureIn,WindDirection,WindDirectionDegrees,WindSpeedMPH,WindSpeedGustMPH,Humidity,HourlyPrecipIn,Conditions,Clouds,dailyrainin,SoftwareType,DateUTC
2013-03-18 00:02:00,34.0,32.0,29.75,SSE,158,1.0,3.0,93,0.00,,,0.12,,2013-03-18 05:02:00,
2013-03-18 00:23:00,34.0,32.0,29.75,SSE,158,1.0,3.0,93,0.00,,,0.12,,2013-03-18 05:23:00,
2013-03-18 00:32:00,34.0,32.0,29.75,SSE,158,1.0,3.0,93,0.00,,,0.12,,2013-03-18 05:32:00,
2013-03-18 00:43:00,34.0,32.0,29.75,SSE,158,1.0,3.0,93,0.00,,,0.12,,2013-03-18 05:43:00,
2013-03-18 00:52:00,34.0,32.0,29.75,SSE,158,1.0,3.0,93,0.00,,,0.12,,2013-03-18 05:52:00,
2013-03-18 02:23:00,34.0,32.0,29.72,ENE,64,4.0,7.0,93,0.00,,,0.12,,2013-03-18 07:23:00,
2013-03-18 02:33:00,34.0,32.0,29.72,ENE,64,4.0,7.0,93,0.00,,,0.12,,2013-03-18 07:33:00,
2013-03-18 02:43:00,34.0,32.0,29.72,ENE,64,4.0,7.0,93,0.00,,,0.12,,2013-03-18 07:43:00,
2013-03-18 02:53:00,34.0,32.0,29.72,ENE,64,4.0,7.0,93,0.00,,,0.12,,2013-03-18 07:53:00,
2013-03-18 03:02:00,34.0,32.0,29.72,ENE,64,4.0,7.0,93,0.00,,,0.12,,2013-03-18 08:02:00,
2013-03-18 04:03:00,34.0,32.0,29.75,NNW,333,2.0,5.0,94,0.00,,,0.12,,2013-03-18 09:03:00,
2013-03-18 04:22:00,34.0,32.0,29.75,NNW,333,2.0,5.0,94,0.00,,,0.12,,2013-03-18 09:22:00,
2013-03-18 04:33:00,34.0,32.0,29.75,NNW,333,2.0,5.0,94,0.00,,,0.12,,2013-03-18 09:33:00,
2013-03-18 04:43:00,34.0,32.0,29.75,NNW,333,2.0,5.0,94,0.00,,,0.12,,2013-03-18 09:43:00,
2013-03-18 04:53:00,34.0,32.0,29.75,NNW,333,2.0,5.0,94,0.00,,,0.12,,2013-03-18 09:53:00,
2013-03-18 06:22:00,34.0,33.0,29.77,WNW,297,3.0,9.0,95,0.01,,,0.13,,2013-03-18 11:22:00,
2013-03-18 06:32:00,34.0,33.0,29.77,WNW,297,3.0,9.0,95,0.01,,,0.13,,2013-03-18 11:32:00,
2013-03-18 06:43:00,34.0,33.0,29.77,WNW,297,3.0,9.0,95,0.01,,,0.13,,2013-03-18 11:43:00,
2013-03-18 06:52:00,34.0,33.0,29.77,WNW,297,3.0,9.0,95,0.01,,,0.13,,2013-03-18 11:52:00,
2013-03-18 07:02:00,34.0,33.0,29.77,WNW,297,3.0,9.0,95,0.01,,,0.13,,2013-03-18 12:02:00,
2013-03-18 08:23:00,35.0,33.0,29.80,West,270,4.0,8.0,91,0.00,,,0.13,,2013-03-18 13:23:00,
2013-03-18 08:33:00,35.0,33.0,29.80,West,270,4.0,8.0,91,0.00,,,0.13,,2013-03-18 13:33:00,
2013-03-18 08:42:00,35.0,33.0,29.80,West,270,4.0,8.0,91,0.00,,,0.13,,2013-03-18 13:42:00,
2013-03-18 08:52:00,35.0,33.0,29.80,West,270,4.0,8.0,91,0.00,,,0.13,,2013-03-18 13:52:00,
2013-03-18 09:02:00,35.0,33.0,29.80,West,270,4.0,8.0,91,0.00,,,0.13,,2013-03-18 14:02:00,
2013-03-18 10:02:00,39.0,34.0,29.84,NNW,328,12.0,19.0,83,0.00,,,0.13,,2013-03-18 15:02:00,
2013-03-18 10:23:00,39.0,34.0,29.84,NNW,328,12.0,19.0,83,0.00,,,0.13,,2013-03-18 15:23:00,
2013-03-18 10:33:00,39.0,34.0,29.84,NNW,328,12.0,19.0,83,0.00,,,0.13,,2013-03-18 15:33:00,
2013-03-18 10:43:00,39.0,34.0,29.84,NNW,328,12.0,19.0,83,0.00,,,0.13,,2013-03-18 15:43:00,
2013-03-18 10:52:00,39.0,34.0,29.84,NNW,328,12.0,19.0,83,0.00,,,0.13,,2013-03-18 15:52:00,
2013-03-18 14:22:00,49.0,25.0,29.89,NNW,335,11.0,24.0,39,0.00,,,0.10,,2013-03-18 19:22:00,
2013-03-18 14:33:00,49.0,25.0,29.89,NNW,335,11.0,24.0,39,0.00,,,0.10,,2013-03-18 19:33:00,
2013-03-18 14:42:00,49.0,25.0,29.89,NNW,335,11.0,24.0,39,0.00,,,0.10,,2013-03-18 19:42:00,
2013-03-18 14:52:00,49.0,25.0,29.89,NNW,335,11.0,24.0,39,0.00,,,0.10,,2013-03-18 19:52:00,
2013-03-18 15:02:00,49.0,25.0,29.89,NNW,335,11.0,24.0,39,0.00,,,0.10,,2013-03-18 20:02:00,
2013-03-18 16:02:00,52.0,22.0,29.88,NNW,331,7.0,17.0,31,0.00,,,0.08,,2013-03-18 21:02:00,
2013-03-18 16:23:00,52.0,22.0,29.88,NNW,331,7.0,17.0,31,0.00,,,0.08,,2013-03-18 21:23:00,
2013-03-18 16:33:00,52.0,22.0,29.88,NNW,331,7.0,17.0,31,0.00,,,0.08,,2013-03-18 21:33:00,
2013-03-18 16:43:00,52.0,22.0,29.88,NNW,331,7.0,17.0,31,0.00,,,0.08,,2013-03-18 21:43:00,
2013-03-18 16:53:00,52.0,22.0,29.88,NNW,331,7.0,17.0,31,0.00,,,0.08,,2013-03-18 21:53:00,
2013-03-18 18:02:00,53.0,21.0,29.90,WNW,283,9.0,21.0,28,0.00,,,0.08,,2013-03-18 23:02:00,
2013-03-18 18:23:00,53.0,21.0,29.90,WNW,283,9.0,21.0,28,0.00,,,0.08,,2013-03-18 23:23:00,
2013-03-18 18:33:00,53.0,21.0,29.90,WNW,283,9.0,21.0,28,0.00,,,0.08,,2013-03-18 23:33:00,
2013-03-18 18:43:00,53.0,21.0,29.90,WNW,283,9.0,21.0,28,0.00,,,0.08,,2013-03-18 23:43:00,
2013-03-18 18:53:00,53.0,21.0,29.90,WNW,283,9.0,21.0,28,0.00,,,0.08,,2013-03-18 23:53:00,
2013-03-18 20:02:00,47.0,19.0,29.96,North,354,7.0,16.0,33,0.00,,,0.02,,2013-03-19 01:02:00,
2013-03-18 20:23:00,47.0,19.0,29.96,North,354,7.0,16.0,33,0.00,,,0.02,,2013-03-19 01:23:00,
2013-03-18 20:33:00,47.0,19.0,29.96,North,354,7.0,16.0,33,0.00,,,0.02,,2013-03-19 01:33:00,
2013-03-18 20:43:00,47.0,19.0,29.96,North,354,7.0,16.0,33,0.00,,,0.02,,2013-03-19 01:43:00,
2013-03-18 20:52:00,47.0,19.0,29.96,North,354,7.0,16.0,33,0.00,,,0.02,,2013-03-19 01:52:00,
2013-03-18 22:03:00,41.0,18.0,30.02,NNW,335,6.0,14.0,39,0.00,,,0.01,,2013-03-19 03:03:00,
2013-03-18 22:23:00,41.0,18.0,30.02,NNW,335,6.0,14.0,39,0.00,,,0.01,,2013-03-19 03:23:00,
2013-03-18 22:33:00,41.0,18.0,30.02,NNW,335,6.0,14.0,39,0.00,,,0.01,,2013-03-19 03:33:00,
2013-03-18 22:43:00,41.0,18.0,30.02,NNW,335,6.0,14.0,39,0.00,,,0.01,,2013-03-19 03:43:00,
2013-03-18 22:54:00,41.0,18.0,30.02,NNW,335,6.0,14.0,39,0.00,,,0.01,,2013-03-19 03:54:00,